createdAt,value
2018-11-11T00:01:32.369Z,102421.00
2018-11-11T00:03:59.811Z,102423.19
2018-11-11T00:06:27.295Z,102423.65
2018-11-11T00:08:54.949Z,102433.34
2018-11-11T00:11:22.378Z,102425.86
2018-11-11T00:13:49.898Z,102429.38
2018-11-11T00:16:17.381Z,102433.34
2018-11-11T00:18:44.850Z,102428.51
2018-11-11T00:21:12.584Z,102437.31
2018-11-11T00:23:40.271Z,102438.17
2018-11-11T00:26:07.720Z,102436.85
2018-11-11T00:28:35.332Z,102441.23
2018-11-11T00:31:02.972Z,102442.56
2018-11-11T00:33:30.436Z,102439.06
2018-11-11T00:35:58.177Z,102446.52
2018-11-11T00:38:25.868Z,102440.36
2018-11-11T00:40:53.240Z,102433.72
2018-11-11T00:43:20.760Z,102434.16
2018-11-11T00:45:48.354Z,102430.18
2018-11-11T00:48:15.836Z,102435.45
2018-11-11T00:50:43.605Z,102434.59
2018-11-11T00:53:11.186Z,102427.55
2018-11-11T00:55:39.843Z,102430.20
2018-11-11T00:58:07.448Z,102430.22
2018-11-11T01:00:35.181Z,102435.09
2018-11-11T01:03:02.626Z,102434.20
2018-11-11T01:05:30.337Z,102435.09
2018-11-11T01:07:57.967Z,102433.27
2018-11-11T01:10:25.379Z,102433.27
2018-11-11T01:12:52.842Z,102433.73
2018-11-11T01:15:20.569Z,102443.02
2018-11-11T01:17:48.045Z,102450.52
2018-11-11T01:20:16.594Z,102448.31
2018-11-11T01:22:44.729Z,102446.52
2018-11-11T01:25:13.377Z,102447.40
2018-11-11T01:27:41.251Z,102444.73
2018-11-11T01:30:09.042Z,102435.04
2018-11-11T01:32:36.825Z,102435.89
2018-11-11T01:35:06.093Z,102429.27
2018-11-11T01:37:33.750Z,102427.94
2018-11-11T01:40:01.213Z,102426.16
2018-11-11T01:42:28.828Z,102419.53
2018-11-11T01:44:56.345Z,102422.66
2018-11-11T01:47:23.917Z,102421.33
2018-11-11T01:49:51.430Z,102424.83
2018-11-11T01:52:19.021Z,102428.80
2018-11-11T01:54:46.539Z,102424.39
2018-11-11T01:57:14.215Z,102422.66
2018-11-11T01:59:41.695Z,102427.45
2018-11-11T02:02:09.196Z,102423.05
2018-11-11T02:04:36.817Z,102418.18
2018-11-11T02:07:05.021Z,102423.45
2018-11-11T02:09:32.482Z,102419.51
2018-11-11T02:12:00.306Z,102420.39
2018-11-11T02:14:27.876Z,102420.39
2018-11-11T02:16:55.313Z,102415.98
2018-11-11T02:19:22.943Z,102415.51
2018-11-11T02:21:50.653Z,102410.66
2018-11-11T02:24:18.251Z,102403.14
2018-11-11T02:26:45.962Z,102401.81
2018-11-11T02:29:13.594Z,102401.38
2018-11-11T02:31:41.053Z,102403.13
2018-11-11T02:34:08.703Z,102403.13
2018-11-11T02:36:36.372Z,102403.53
2018-11-11T02:39:05.009Z,102407.98
2018-11-11T02:41:32.613Z,102397.81
2018-11-11T02:44:00.271Z,102397.81
2018-11-11T02:46:27.661Z,102402.26
2018-11-11T02:48:55.205Z,102400.52
2018-11-11T02:51:22.843Z,102406.68
2018-11-11T02:53:50.306Z,102396.93
2018-11-11T02:56:17.850Z,102388.98
2018-11-11T02:58:45.478Z,102400.91
2018-11-11T03:01:13.008Z,102403.14
2018-11-11T03:03:40.452Z,102400.93
2018-11-11T03:06:08.050Z,102397.41
2018-11-11T03:08:35.513Z,102400.08
2018-11-11T03:11:03.007Z,102404.05
2018-11-11T03:13:30.616Z,102400.50
2018-11-11T03:15:58.060Z,102400.05
2018-11-11T03:18:25.508Z,102403.13
2018-11-11T03:20:53.139Z,102402.70
2018-11-11T03:23:20.649Z,102404.45
2018-11-11T03:25:48.174Z,102400.47
2018-11-11T03:28:15.877Z,102401.77
2018-11-11T03:30:43.352Z,102397.36
2018-11-11T03:33:11.017Z,102401.30
2018-11-11T03:35:38.731Z,102401.75
2018-11-11T03:38:06.240Z,102399.09
2018-11-11T03:40:33.898Z,102396.88
2018-11-11T03:43:01.547Z,102396.05
2018-11-11T03:45:29.011Z,102392.08
2018-11-11T03:47:56.636Z,102385.89
2018-11-11T03:50:24.106Z,102386.30
2018-11-11T03:52:51.523Z,102391.61
2018-11-11T03:55:19.105Z,102400.88
2018-11-11T03:57:46.808Z,102393.82
2018-11-11T04:00:15.373Z,102401.77
2018-11-11T04:02:43.074Z,102407.48
2018-11-11T04:05:12.084Z,102401.75
2018-11-11T04:07:39.792Z,102398.66
2018-11-11T04:10:09.163Z,102396.86
2018-11-11T04:12:36.922Z,102388.05
2018-11-11T04:15:05.029Z,102404.78
2018-11-11T04:17:32.686Z,102412.71
2018-11-11T04:20:00.242Z,102413.57
2018-11-11T04:22:27.685Z,102402.97
2018-11-11T04:24:55.260Z,102410.01
2018-11-11T04:27:22.922Z,102404.70
2018-11-11T04:29:50.357Z,102398.08
2018-11-11T04:32:17.939Z,102400.73
2018-11-11T04:34:45.668Z,102398.11
2018-11-11T04:37:13.136Z,102392.81
2018-11-11T04:39:41.133Z,102387.06
2018-11-11T04:42:08.838Z,102391.05
2018-11-11T04:44:36.337Z,102392.78
2018-11-11T04:47:03.973Z,102397.67
2018-11-11T04:49:31.583Z,102403.38
2018-11-11T04:51:59.046Z,102400.73
2018-11-11T04:54:26.675Z,102396.78
2018-11-11T04:56:54.394Z,102401.20
2018-11-11T04:59:21.912Z,102400.73
2018-11-11T05:01:49.491Z,102397.23
2018-11-11T05:04:17.119Z,102391.48
2018-11-11T05:06:44.526Z,102391.50
2018-11-11T05:09:12.994Z,102388.44
2018-11-11T05:11:40.887Z,102393.30
2018-11-11T05:14:08.791Z,102389.72
2018-11-11T05:16:36.458Z,102393.25
2018-11-11T05:19:04.671Z,102406.03
2018-11-11T05:21:32.117Z,102391.02
2018-11-11T05:23:59.710Z,102387.45
2018-11-11T05:26:27.457Z,102387.91
2018-11-11T05:28:54.880Z,102396.27
2018-11-11T05:31:22.458Z,102390.08
2018-11-11T05:33:50.073Z,102390.97
2018-11-11T05:36:17.619Z,102336.30
2018-11-11T05:38:45.232Z,102394.50
2018-11-11T05:41:12.896Z,102385.64
2018-11-11T05:43:40.352Z,102390.91
2018-11-11T05:46:08.056Z,102401.93
2018-11-11T05:48:35.754Z,102397.52
2018-11-11T05:51:03.282Z,102402.41
2018-11-11T05:53:30.930Z,102400.16
2018-11-11T05:55:58.633Z,102399.28
2018-11-11T05:58:26.313Z,102394.86
2018-11-11T06:00:53.775Z,102392.23
2018-11-11T06:03:21.441Z,102396.63
2018-11-11T06:05:48.915Z,102392.65
2018-11-11T06:08:16.459Z,102395.30
2018-11-11T06:10:44.181Z,102402.41
2018-11-11T06:13:11.657Z,102404.58
2018-11-11T06:15:39.166Z,102399.73
2018-11-11T06:18:06.701Z,102401.49
2018-11-11T06:20:34.145Z,102405.03
2018-11-11T06:23:01.778Z,102406.35
2018-11-11T06:25:29.545Z,102395.75
2018-11-11T06:27:57.027Z,102397.52
2018-11-11T06:30:24.524Z,102393.53
2018-11-11T06:32:52.065Z,102402.79
2018-11-11T06:35:19.510Z,102396.19
2018-11-11T06:38:17.867Z,102400.58
2018-11-11T06:40:45.360Z,102399.28
2018-11-11T06:43:12.891Z,102397.54
2018-11-11T06:45:40.556Z,102398.87
2018-11-11T06:48:08.088Z,102394.91
2018-11-11T06:50:35.513Z,102391.38
2018-11-11T06:53:03.340Z,102390.05
2018-11-11T06:55:30.816Z,102393.59
2018-11-11T06:57:58.373Z,102387.42
2018-11-11T07:00:26.248Z,102390.53
2018-11-11T07:03:04.856Z,102379.89
2018-11-11T07:05:32.676Z,102379.01
2018-11-11T07:08:00.128Z,102382.98
2018-11-11T07:10:27.651Z,102383.42
2018-11-11T07:12:55.444Z,102382.98
2018-11-11T07:15:22.947Z,102389.17
2018-11-11T07:17:50.409Z,102390.88
2018-11-11T07:20:18.146Z,102384.27
2018-11-11T07:22:45.617Z,102386.91
2018-11-11T07:25:13.237Z,102389.15
2018-11-11T07:27:41.066Z,102287.77
2018-11-11T07:30:08.642Z,102393.56
2018-11-11T07:32:36.155Z,102378.58
2018-11-11T07:35:04.183Z,102384.28
2018-11-11T07:37:31.654Z,102379.88
2018-11-11T07:39:59.124Z,102378.95
2018-11-11T07:42:27.001Z,102367.44
2018-11-11T07:44:54.532Z,102373.19
2018-11-11T07:47:21.958Z,102382.02
2018-11-11T07:49:49.616Z,102382.91
2018-11-11T07:52:17.072Z,102385.53
2018-11-11T07:54:44.536Z,102388.59
2018-11-11T07:57:12.256Z,102387.72
2018-11-11T07:59:39.721Z,102386.86
2018-11-11T08:02:07.573Z,102386.83
2018-11-11T08:04:35.357Z,102386.42
2018-11-11T08:07:02.845Z,102389.51
2018-11-11T08:09:30.403Z,102382.00
2018-11-11T08:11:59.532Z,102387.30
2018-11-11T08:14:27.527Z,102381.55
2018-11-11T08:16:55.076Z,102385.97
2018-11-11T08:19:22.699Z,102389.51
2018-11-11T08:21:50.105Z,102382.44
2018-11-11T08:24:17.912Z,102382.41
2018-11-11T08:26:45.495Z,102375.78
2018-11-11T08:29:12.954Z,102382.83
2018-11-11T08:31:40.795Z,102379.73
2018-11-11T08:34:08.503Z,102386.36
2018-11-11T08:36:35.942Z,102388.55
2018-11-11T08:39:05.083Z,102384.57
2018-11-11T08:41:32.666Z,102376.62
2018-11-11T08:44:00.173Z,102389.41
2018-11-11T08:46:27.632Z,102394.29
2018-11-11T08:48:55.410Z,102392.97
2018-11-11T08:51:22.901Z,102403.10
2018-11-11T08:53:50.339Z,102397.36
2018-11-11T08:56:18.133Z,102396.45
2018-11-11T08:58:45.587Z,102399.54
2018-11-11T09:01:13.054Z,102400.40
2018-11-11T09:03:40.640Z,102400.84
2018-11-11T09:06:08.138Z,102400.40
2018-11-11T09:08:35.663Z,102403.91
2018-11-11T09:11:03.422Z,102400.40
2018-11-11T09:13:30.864Z,102397.27
2018-11-11T09:15:58.305Z,102398.60
2018-11-11T09:18:25.830Z,102387.97
2018-11-11T09:20:53.306Z,102387.97
2018-11-11T09:23:20.780Z,102384.91
2018-11-11T09:25:48.472Z,102386.64
2018-11-11T09:28:15.934Z,102385.79
2018-11-11T09:30:43.453Z,102380.02
2018-11-11T09:33:11.138Z,102380.46
2018-11-11T09:35:38.614Z,102380.02
2018-11-11T09:38:06.043Z,102382.66
2018-11-11T09:40:33.787Z,102373.38
2018-11-11T09:43:01.302Z,102374.71
2018-11-11T09:46:31.704Z,102380.92
2018-11-11T09:48:59.182Z,102379.22
2018-11-11T09:51:26.662Z,102379.22
2018-11-11T09:53:54.343Z,102378.33
2018-11-11T09:56:21.766Z,102378.33
2018-11-11T09:58:49.379Z,102373.00
2018-11-11T10:01:17.157Z,102370.76
2018-11-11T10:05:53.168Z,102370.76
2018-11-11T10:08:26.445Z,102370.30
2018-11-11T10:10:59.200Z,102368.53
2018-11-11T10:13:34.237Z,102369.41
2018-11-11T10:16:08.698Z,102366.76
2018-11-11T10:18:42.922Z,102371.62
2018-11-11T10:21:15.902Z,102368.97
2018-11-11T10:23:48.688Z,102375.63
2018-11-11T10:26:24.318Z,102371.20
2018-11-11T10:28:58.558Z,102365.43
2018-11-11T10:31:34.732Z,102361.90
2018-11-11T10:34:12.496Z,102371.16
2018-11-11T10:36:43.096Z,102364.05
2018-11-11T10:39:16.069Z,102361.40
2018-11-11T10:41:49.103Z,102356.55
2018-11-11T10:44:20.763Z,102361.81
2018-11-11T10:46:53.066Z,102355.16
2018-11-11T10:49:30.205Z,102353.36
2018-11-11T10:51:57.779Z,102345.88
2018-11-11T10:54:25.425Z,102349.38
2018-11-11T10:56:53.101Z,102348.50
2018-11-11T10:59:20.630Z,102339.63
2018-11-11T11:01:53.778Z,102295.90
2018-11-11T11:04:21.272Z,102340.04
2018-11-11T11:06:54.344Z,102331.64
2018-11-11T11:09:21.879Z,102321.00
2018-11-11T11:11:49.389Z,102319.65
2018-11-11T11:14:16.875Z,102317.88
2018-11-11T11:16:44.679Z,102315.23
2018-11-11T11:19:12.360Z,102313.02
2018-11-11T11:21:39.908Z,102306.83
2018-11-11T11:24:07.591Z,102311.25
2018-11-11T11:26:35.135Z,102305.95
2018-11-11T11:29:02.660Z,102310.78
2018-11-11T11:31:30.391Z,102311.66
2018-11-11T11:33:58.036Z,102313.41
2018-11-11T11:36:25.783Z,102319.18
2018-11-11T11:38:53.517Z,102312.96
2018-11-11T11:41:21.241Z,102319.56
2018-11-11T11:43:48.736Z,102311.16
2018-11-11T11:46:16.512Z,102312.91
2018-11-11T11:48:44.230Z,102312.88
2018-11-11T11:51:11.695Z,102308.89
2018-11-11T11:53:39.418Z,102312.88
2018-11-11T11:56:07.090Z,102316.82
2018-11-11T11:58:34.543Z,102319.88
2018-11-11T12:01:02.064Z,102317.70
2018-11-11T12:03:29.603Z,102317.23
2018-11-11T12:06:04.319Z,102312.38
2018-11-11T12:08:32.168Z,102312.34
2018-11-11T12:10:59.596Z,102305.30
2018-11-11T12:13:27.110Z,102306.59
2018-11-11T12:15:57.632Z,102301.29
2018-11-11T12:18:25.104Z,102303.02
2018-11-11T12:20:52.667Z,102299.48
2018-11-11T12:23:20.165Z,102300.78
2018-11-11T12:25:47.627Z,102296.83
2018-11-11T12:28:15.264Z,102294.63
2018-11-11T12:30:43.126Z,102289.76
2018-11-11T12:33:10.616Z,102293.30
2018-11-11T12:35:38.222Z,102287.08
2018-11-11T12:38:05.830Z,102279.11
2018-11-11T12:40:33.365Z,102278.23
2018-11-11T12:43:01.036Z,102280.03
2018-11-11T12:45:28.811Z,102278.23
2018-11-11T12:47:56.306Z,102275.17
2018-11-11T12:50:24.435Z,102272.08
2018-11-11T12:52:51.914Z,102276.88
2018-11-11T12:55:19.531Z,102272.05
2018-11-11T12:57:47.126Z,102278.64
2018-11-11T13:00:15.197Z,102275.52
2018-11-11T13:02:42.726Z,102271.53
2018-11-11T13:05:10.780Z,102268.88
2018-11-11T13:07:38.451Z,102268.88
2018-11-11T13:10:08.630Z,102271.09
2018-11-11T13:12:36.452Z,102264.91
2018-11-11T13:15:04.579Z,102223.98
2018-11-11T13:17:32.013Z,102268.44
2018-11-11T13:19:59.671Z,102264.43
2018-11-11T13:22:27.475Z,102269.73
2018-11-11T13:24:54.959Z,102267.05
2018-11-11T13:27:22.646Z,102261.74
2018-11-11T13:29:50.199Z,102262.62
2018-11-11T13:32:17.689Z,102265.69
2018-11-11T13:34:45.274Z,102263.92
2018-11-11T13:37:12.914Z,102259.06
2018-11-11T13:39:40.450Z,102256.41
2018-11-11T13:42:08.085Z,102258.17
2018-11-11T13:44:35.648Z,102256.41
2018-11-11T13:47:03.415Z,102254.23
2018-11-11T13:49:30.946Z,102249.84
2018-11-11T13:51:58.642Z,102247.16
2018-11-11T13:54:26.175Z,102247.13
2018-11-11T13:56:53.813Z,102246.20
2018-11-11T13:59:21.513Z,102250.18
2018-11-11T14:01:49.072Z,102252.84
2018-11-11T14:04:16.555Z,102249.33
2018-11-11T14:06:44.162Z,102251.51
2018-11-11T14:09:13.099Z,102246.20
2018-11-11T14:11:40.926Z,102195.17
2018-11-11T14:14:08.646Z,102243.99
2018-11-11T14:16:36.125Z,102237.80
2018-11-11T14:19:03.907Z,102242.70
2018-11-11T14:21:31.642Z,102240.45
2018-11-11T14:23:59.106Z,102237.36
2018-11-11T14:26:26.840Z,102240.86
2018-11-11T14:28:54.307Z,102236.44
2018-11-11T14:31:21.948Z,102237.73
2018-11-11T14:33:49.607Z,102236.38
2018-11-11T14:36:17.205Z,102232.80
2018-11-11T14:38:44.705Z,102231.03
2018-11-11T14:41:12.296Z,102223.11
2018-11-11T14:43:39.987Z,102232.80
2018-11-11T14:46:07.609Z,102219.09
2018-11-11T14:48:35.362Z,102220.83
2018-11-11T14:51:02.933Z,102217.33
2018-11-11T14:53:30.453Z,102209.77
2018-11-11T14:55:58.064Z,102212.42
2018-11-11T14:58:25.810Z,102215.08
2018-11-11T15:00:53.293Z,102214.20
2018-11-11T15:03:20.959Z,102215.08
2018-11-11T15:05:48.692Z,102218.14
2018-11-11T15:08:16.177Z,102210.66
2018-11-11T15:10:43.954Z,102216.37
2018-11-11T15:13:12.438Z,102212.80
2018-11-11T15:15:39.925Z,102210.11
2018-11-11T15:18:07.878Z,102202.16
2018-11-11T15:20:35.829Z,102206.61
2018-11-11T15:23:03.154Z,102196.84
2018-11-11T15:25:31.302Z,102206.13
2018-11-11T15:27:58.741Z,102203.48
2018-11-11T15:30:27.471Z,102206.98
2018-11-11T15:32:55.628Z,102200.75
2018-11-11T15:35:23.199Z,102204.30
2018-11-11T15:37:50.682Z,102202.48
2018-11-11T15:40:19.482Z,102194.94
2018-11-11T15:42:47.014Z,102192.72
2018-11-11T15:45:16.033Z,102199.32
2018-11-11T15:47:43.629Z,102198.47
2018-11-11T15:50:13.576Z,102200.20
2018-11-11T15:52:42.496Z,102200.65
2018-11-11T15:55:11.482Z,102199.32
2018-11-11T15:57:39.030Z,102200.65
2018-11-11T16:00:08.892Z,102199.32
2018-11-11T16:02:36.577Z,102190.06
2018-11-11T16:05:04.600Z,102201.09
2018-11-11T16:07:32.069Z,102191.77
2018-11-11T16:09:59.676Z,102188.67
2018-11-11T16:12:27.364Z,102184.72
2018-11-11T16:14:54.864Z,102183.36
2018-11-11T16:17:22.519Z,102184.25
2018-11-11T16:19:50.166Z,102185.13
2018-11-11T16:22:17.700Z,102179.82
2018-11-11T16:24:45.219Z,102185.58
2018-11-11T16:27:12.750Z,102179.78
2018-11-11T16:29:40.198Z,102182.44
2018-11-11T16:32:07.899Z,102181.11
2018-11-11T16:34:35.488Z,102188.19
2018-11-11T16:37:03.030Z,102179.78
2018-11-11T16:39:30.796Z,102171.83
2018-11-11T16:41:58.449Z,102168.25
2018-11-11T16:44:25.885Z,102174.88
2018-11-11T16:46:53.725Z,102178.42
2018-11-11T16:49:21.275Z,102170.02
2018-11-11T16:51:48.782Z,102175.33
2018-11-11T16:54:16.578Z,102174.88
2018-11-11T16:56:44.100Z,102173.15
2018-11-11T16:59:11.582Z,102170.05
2018-11-11T17:01:39.271Z,102168.69
2018-11-11T17:04:06.929Z,102167.41
2018-11-11T17:06:34.408Z,102169.20
2018-11-11T17:09:01.997Z,102164.34
2018-11-11T17:11:29.578Z,102175.87
2018-11-11T17:13:57.142Z,102167.03
2018-11-11T17:16:24.748Z,102176.80
2018-11-11T17:18:52.672Z,102169.28
2018-11-11T17:21:20.165Z,102173.70
2018-11-11T17:23:47.758Z,102170.16
2018-11-11T17:26:15.351Z,102171.49
2018-11-11T17:28:42.905Z,102168.84
2018-11-11T17:31:10.550Z,102164.81
2018-11-11T17:33:38.187Z,102164.81
2018-11-11T17:36:05.804Z,102167.47
2018-11-11T17:38:33.388Z,102172.30
2018-11-11T17:41:01.044Z,102174.03
2018-11-11T17:43:28.517Z,102169.14
2018-11-11T17:45:56.028Z,102168.66
2018-11-11T17:48:23.607Z,102166.92
2018-11-11T17:50:51.149Z,102166.52
2018-11-11T17:53:18.701Z,102158.11
2018-11-11T17:55:46.323Z,102166.52
2018-11-11T17:58:13.696Z,102155.90
2018-11-11T18:00:41.215Z,102155.90
2018-11-11T18:03:08.843Z,102162.13
2018-11-11T18:05:36.258Z,102170.13
2018-11-11T18:08:04.052Z,102174.59
2018-11-11T18:10:31.756Z,102167.52
2018-11-11T18:12:59.181Z,102162.79
2018-11-11T18:15:29.095Z,102164.63
2018-11-11T18:17:56.774Z,102163.75
2018-11-11T18:20:25.586Z,102160.24
2018-11-11T18:22:54.180Z,102159.73
2018-11-11T18:25:21.800Z,102164.66
2018-11-11T18:27:49.319Z,102166.03
2018-11-11T18:30:21.557Z,102164.70
2018-11-11T18:32:49.127Z,102166.51
2018-11-11T18:35:17.277Z,102154.16
2018-11-11T18:37:44.915Z,102169.67
2018-11-11T18:40:13.702Z,102155.97
2018-11-11T18:42:41.144Z,102159.50
2018-11-11T18:45:11.306Z,102155.97
2018-11-11T18:47:39.120Z,102160.83
2018-11-11T18:50:10.882Z,102167.46
2018-11-11T18:52:38.561Z,102163.48
2018-11-11T18:55:06.646Z,102163.92
2018-11-11T18:57:34.132Z,102167.46
2018-11-11T19:00:01.726Z,102162.23
2018-11-11T19:02:29.416Z,102156.95
2018-11-11T19:04:56.886Z,102163.62
2018-11-11T19:07:24.782Z,102157.47
2018-11-11T19:09:52.875Z,102156.14
2018-11-11T19:12:20.380Z,102149.55
2018-11-11T19:14:48.075Z,102149.14
2018-11-11T19:17:15.685Z,102143.83
2018-11-11T19:19:43.215Z,102154.81
2018-11-11T19:22:10.797Z,102150.42
2018-11-11T19:24:38.480Z,102148.22
2018-11-11T19:27:06.016Z,102150.02
2018-11-11T19:29:33.535Z,102150.50
2018-11-11T19:32:01.328Z,102147.44
2018-11-11T19:34:28.809Z,102146.11
2018-11-11T19:36:56.382Z,102146.52
2018-11-11T19:39:24.105Z,102140.77
2018-11-11T19:41:51.592Z,102145.60
2018-11-11T19:44:19.408Z,102142.91
2018-11-11T19:46:46.986Z,102145.56
2018-11-11T19:49:14.506Z,102139.45
2018-11-11T19:51:42.203Z,102140.80
2018-11-11T19:54:09.717Z,102138.19
2018-11-11T19:56:37.261Z,102147.00
2018-11-11T19:59:04.755Z,102154.10
2018-11-11T20:01:32.449Z,102142.16
2018-11-11T20:03:59.970Z,102145.30
2018-11-11T20:06:27.526Z,102136.94
2018-11-11T20:08:55.148Z,102132.14
2018-11-11T20:11:22.620Z,102139.25
2018-11-11T20:13:50.460Z,102133.06
2018-11-11T20:16:17.982Z,102129.11
2018-11-11T20:18:45.529Z,102126.50
2018-11-11T20:21:13.242Z,102117.25
2018-11-11T20:23:40.871Z,102125.68
2018-11-11T20:26:08.403Z,102122.14
2018-11-11T20:28:36.130Z,102117.32
2018-11-11T20:31:03.933Z,102113.30
2018-11-11T20:33:31.394Z,102114.19
2018-11-11T20:35:59.156Z,102105.79
2018-11-11T20:38:26.891Z,102107.97
2018-11-11T20:40:54.374Z,102105.79
2018-11-11T20:43:22.076Z,102108.85
2018-11-11T20:45:49.834Z,102103.58
2018-11-11T20:48:17.306Z,102108.48
2018-11-11T20:50:44.924Z,102105.35
2018-11-11T20:53:12.567Z,102105.79
2018-11-11T20:55:40.025Z,102100.05
2018-11-11T20:58:07.810Z,102107.56
2018-11-11T21:00:36.641Z,102106.23
2018-11-11T21:03:04.615Z,102100.52
2018-11-11T21:05:32.163Z,102098.31
2018-11-11T21:08:00.679Z,102099.61
2018-11-11T21:10:28.787Z,102095.63
2018-11-11T21:12:56.764Z,102092.97
2018-11-11T21:15:25.610Z,102096.95
2018-11-11T21:17:53.078Z,102095.63
2018-11-11T21:20:22.040Z,102092.97
2018-11-11T21:22:49.624Z,102087.23
2018-11-11T21:25:17.123Z,102088.52
2018-11-11T21:27:45.843Z,102092.91
2018-11-11T21:30:14.853Z,102095.97
2018-11-11T21:32:42.429Z,102081.41
2018-11-11T21:35:10.689Z,102088.01
2018-11-11T21:37:38.440Z,102083.59
2018-11-11T21:40:08.237Z,102086.23
2018-11-11T21:42:35.898Z,102074.75
2018-11-11T21:45:03.936Z,102080.05
2018-11-11T21:47:31.390Z,102075.59
2018-11-11T21:49:58.997Z,102078.62
2018-11-11T21:52:26.626Z,102071.55
2018-11-11T21:54:54.133Z,102068.01
2018-11-11T21:57:21.835Z,102067.97
2018-11-11T21:59:49.451Z,102063.11
2018-11-11T22:02:16.889Z,102058.21
2018-11-11T22:04:44.594Z,102060.42
2018-11-11T22:07:12.350Z,102050.70
2018-11-11T22:09:39.902Z,102055.52
2018-11-11T22:12:07.636Z,102051.98
2018-11-11T22:14:35.401Z,102043.55
2018-11-11T22:17:02.994Z,102045.35
2018-11-11T22:19:30.799Z,102040.05
2018-11-11T22:21:58.525Z,102045.76
2018-11-11T22:24:25.988Z,102041.34
2018-11-11T22:26:53.500Z,102048.38
2018-11-11T22:29:21.221Z,102047.45
2018-11-11T22:31:48.681Z,102043.44
2018-11-11T22:34:16.267Z,102039.94
2018-11-11T22:36:44.018Z,102039.02
2018-11-11T22:39:12.100Z,102024.87
2018-11-11T22:41:40.074Z,102032.38
2018-11-11T22:44:08.769Z,102022.22
2018-11-11T22:46:36.565Z,102028.45
2018-11-11T22:49:04.549Z,102020.05
2018-11-11T22:51:32.135Z,102024.02
2018-11-11T22:53:59.699Z,102014.73
2018-11-11T22:56:27.321Z,102007.67
2018-11-11T22:58:55.089Z,102009.03
2018-11-11T23:01:22.664Z,102015.22
2018-11-11T23:03:50.673Z,102016.55
2018-11-11T23:06:18.641Z,102016.10
2018-11-11T23:08:46.468Z,102014.34
2018-11-11T23:11:14.486Z,102020.52
2018-11-11T23:13:42.361Z,102014.85
2018-11-11T23:16:09.895Z,102017.98
2018-11-11T23:18:38.394Z,102014.00
2018-11-11T23:21:06.480Z,102016.70
2018-11-11T23:23:34.029Z,102018.47
2018-11-11T23:26:02.037Z,102014.93
2018-11-11T23:28:29.838Z,102011.39
2018-11-11T23:30:57.290Z,101940.05
2018-11-11T23:33:25.297Z,102021.12
2018-11-11T23:35:52.999Z,102014.86
2018-11-11T23:38:20.470Z,102015.73
2018-11-11T23:40:48.116Z,102017.50
2018-11-11T23:43:16.053Z,102009.14
2018-11-11T23:45:43.584Z,102004.24
2018-11-11T23:48:11.577Z,101767.84
2018-11-11T23:50:39.215Z,101999.86
2018-11-11T23:53:06.619Z,101997.20
2018-11-11T23:55:34.283Z,102003.84
2018-11-11T23:58:01.824Z,101994.16
